Time;durP1;ratioP1;P1;durP2;ratioP2;P2;SDS_P1;SDS_P2;PMS_P1;PMS_P2;Temp;Humidity;BMP_temperature;BMP_pressure;BME280_temperature;BME280_humidity;BME280_pressure;Samples;Min_cycle;Max_cycle;Signal;HPM_P1;HPM_P2
2023/06/13 00:00:42;;;;;;;5.70;5.20;;;;;;;20.59;100.00;101425.66;5032844;28;20117;-53
2023/06/13 00:03:09;;;;;;;12.40;5.32;;;;;;;20.51;100.00;101438.69;5034387;28;20034;-53
2023/06/13 00:05:34;;;;;;;5.70;4.45;;;;;;;20.44;100.00;101432.00;5034204;28;20116;-53
2023/06/13 00:07:59;;;;;;;5.18;4.63;;;;;;;20.38;100.00;101439.53;5034590;28;20121;-54
2023/06/13 00:10:25;;;;;;;6.70;5.15;;;;;;;19.91;100.00;101368.53;5016870;28;20417;-54
2023/06/13 00:12:51;;;;;;;10.98;4.45;;;;;;;20.23;100.00;101432.47;5016991;28;20476;-52
2023/06/13 00:15:16;;;;;;;5.45;4.95;;;;;;;19.87;100.00;101387.53;5027776;28;20045;-52
2023/06/13 00:17:42;;;;;;;5.15;4.38;;;;;;;19.77;100.00;101373.00;5034668;28;20044;-51
2023/06/13 00:20:08;;;;;;;4.93;4.43;;;;;;;19.58;100.00;101349.28;5034713;28;20033;-51
2023/06/13 00:22:34;;;;;;;4.68;4.28;;;;;;;19.93;100.00;101432.56;5016978;28;20534;-52
2023/06/13 00:25:00;;;;;;;5.88;4.72;;;;;;;19.90;100.00;101436.28;5034156;28;20053;-50
2023/06/13 00:27:25;;;;;;;4.97;4.47;;;;;;;19.76;100.00;101412.22;5033244;28;20529;-51
2023/06/13 00:29:50;;;;;;;5.07;4.57;;;;;;;19.83;100.00;101432.28;5034160;28;20072;-50
2023/06/13 00:32:17;;;;;;;5.32;4.70;;;;;;;19.74;100.00;101437.31;5033118;28;20491;-52
2023/06/13 00:34:43;;;;;;;5.13;4.63;;;;;;;19.58;100.00;101419.53;5032796;28;20044;-53
2023/06/13 00:37:13;;;;;;;5.60;4.93;;;;;;;19.06;100.00;101344.38;5034191;28;20042;-52
2023/06/13 00:39:39;;;;;;;6.63;4.70;;;;;;;19.45;100.00;101415.91;5016921;28;20032;-51
2023/06/13 00:42:06;;;;;;;4.95;4.43;;;;;;;19.08;100.00;101350.50;5033606;28;20041;-51
2023/06/13 00:44:32;;;;;;;5.50;4.82;;;;;;;19.44;100.00;101424.84;5033793;28;20045;-53
2023/06/13 00:46:58;;;;;;;7.65;5.57;;;;;;;19.40;100.00;101428.69;5016308;28;20034;-52
2023/06/13 00:49:25;;;;;;;7.15;4.43;;;;;;;19.39;100.00;101421.59;5014733;28;20049;-49
2023/06/13 00:51:51;;;;;;;5.00;4.43;;;;;;;19.26;100.00;101414.41;5032586;28;20036;-53
2023/06/13 00:54:17;;;;;;;6.03;4.43;;;;;;;18.92;100.00;101355.00;5016220;28;20033;-51
2023/06/13 00:56:44;;;;;;;5.38;4.88;;;;;;;19.29;100.00;101432.91;5032593;28;20034;-53
2023/06/13 00:59:10;;;;;;;6.55;4.75;;;;;;;19.20;100.00;101418.28;5032655;28;20029;-53
2023/06/13 01:01:40;;;;;;;5.07;4.53;;;;;;;19.15;100.00;101417.69;5032374;28;20473;-53
2023/06/13 01:04:07;;;;;;;5.13;4.63;;;;;;;19.08;100.00;101422.53;5033879;28;20100;-49
2023/06/13 01:06:33;;;;;;;5.55;5.03;;;;;;;18.89;100.00;101397.00;5011796;28;20504;-53
2023/06/13 01:09:02;;;;;;;7.80;4.32;;;;;;;18.52;100.00;101353.78;4996339;28;20379;-52
2023/06/13 01:11:37;;;;;;;6.40;5.30;;;;;;;18.88;100.00;101411.31;4996206;28;20034;-53
2023/06/13 01:14:48;;;;;;;5.18;4.68;;;;;;;18.88;100.00;101417.50;5012674;28;20030;-51
2023/06/13 01:17:27;;;;;;;4.95;4.50;;;;;;;18.41;100.00;101340.19;5004724;28;20046;-52
2023/06/13 01:19:59;;;;;;;7.35;5.35;;;;;;;18.79;100.00;101417.16;4996298;28;20088;-52
2023/06/13 01:22:35;;;;;;;5.30;4.25;;;;;;;18.72;100.00;101415.78;5014101;28;20044;-54
2023/06/13 01:25:08;;;;;;;5.05;4.55;;;;;;;18.64;100.00;101402.91;5011685;28;20038;-54
2023/06/13 01:27:35;;;;;;;7.55;4.50;;;;;;;18.67;100.00;101420.53;4995398;28;20501;-54
2023/06/13 01:30:01;;;;;;;5.93;4.70;;;;;;;18.60;100.00;101413.81;5012122;28;20034;-54
2023/06/13 01:32:28;;;;;;;5.30;4.78;;;;;;;18.04;100.00;101321.88;5013666;28;20396;-52
2023/06/13 01:34:53;;;;;;;4.78;4.38;;;;;;;18.13;100.00;101337.34;5012000;28;20125;-52
2023/06/13 01:37:19;;;;;;;7.93;4.72;;;;;;;18.40;100.00;101397.09;5013034;28;20128;-51
2023/06/13 01:39:44;;;;;;;5.75;4.72;;;;;;;18.47;100.00;101416.28;5012195;28;20478;-53
2023/06/13 01:42:10;;;;;;;5.60;5.03;;;;;;;18.40;100.00;101405.09;5025000;28;20033;-53
2023/06/13 01:44:35;;;;;;;5.90;4.78;;;;;;;17.81;100.00;101324.94;5014971;28;20411;-54
2023/06/13 01:47:27;;;;;;;8.75;4.32;;;;;;;18.31;100.00;101415.41;5033138;28;20057;-53
2023/06/13 01:50:07;;;;;;;6.97;4.70;;;;;;;18.17;100.00;101397.50;5032411;28;20042;-55
2023/06/13 01:52:32;;;;;;;6.07;4.60;;;;;;;18.21;100.00;101407.06;5032870;28;20469;-49
2023/06/13 01:55:02;;;;;;;6.43;5.13;;;;;;;17.73;100.00;101333.34;5032597;28;20029;-50
2023/06/13 01:57:44;;;;;;;7.18;4.97;;;;;;;17.73;100.00;101343.13;5032886;28;20021;-52
2023/06/13 02:00:12;;;;;;;6.28;4.10;;;;;;;17.79;100.00;101349.00;5014238;28;20029;-54
2023/06/13 02:02:38;;;;;;;4.80;4.35;;;;;;;17.95;100.00;101386.28;5031292;28;20041;-54
2023/06/13 02:05:04;;;;;;;5.53;4.57;;;;;;;18.01;100.00;101395.78;5015031;28;20045;-52
2023/06/13 02:07:31;;;;;;;5.30;4.60;;;;;;;18.00;100.00;101400.25;5032406;28;20042;-54
2023/06/13 02:09:57;;;;;;;5.97;4.38;;;;;;;17.57;100.00;101331.59;5015364;28;20515;-54
2023/06/13 02:12:22;;;;;;;6.28;4.20;;;;;;;17.92;100.00;101392.66;5032272;28;20050;-51
2023/06/13 02:14:48;;;;;;;5.10;4.40;;;;;;;17.91;100.00;101406.94;5031895;28;20041;-51
2023/06/13 02:17:13;;;;;;;9.82;4.97;;;;;;;17.63;100.00;101363.22;5032514;28;20038;-52
2023/06/13 02:19:38;;;;;;;7.00;4.60;;;;;;;17.82;100.00;101401.22;5032242;28;20389;-52
2023/06/13 02:22:05;;;;;;;6.13;4.45;;;;;;;17.72;100.00;101386.66;5014422;28;20029;-53
2023/06/13 02:24:30;;;;;;;6.75;4.38;;;;;;;17.79;100.00;101401.38;5031026;28;20076;-52
2023/06/13 02:26:55;;;;;;;11.05;5.00;;;;;;;17.05;100.00;101280.22;5032409;28;20472;-50
2023/06/13 02:29:21;;;;;;;4.60;4.20;;;;;;;17.58;100.00;101366.13;5032392;28;20042;-53
2023/06/13 02:31:46;;;;;;;6.00;4.50;;;;;;;17.60;100.00;101376.69;5032214;28;20045;-52
2023/06/13 02:34:11;;;;;;;6.35;4.50;;;;;;;17.22;100.00;101307.66;5031162;28;20092;-50
2023/06/13 02:36:37;;;;;;;4.93;4.43;;;;;;;17.28;100.00;101320.66;5031947;28;20037;-50
2023/06/13 02:39:03;;;;;;;6.15;4.70;;;;;;;17.24;100.00;101323.56;5031945;28;20040;-53
2023/06/13 02:41:28;;;;;;;8.60;5.18;;;;;;;17.58;100.00;101403.38;5031902;28;20033;-52
2023/06/13 02:43:53;;;;;;;6.22;4.53;;;;;;;17.55;100.00;101392.91;5014820;28;20357;-53
2023/06/13 02:46:19;;;;;;;6.63;4.68;;;;;;;17.09;100.00;101327.00;5032273;28;20088;-51
2023/06/13 02:48:44;;;;;;;7.20;4.80;;;;;;;17.49;100.00;101405.63;5031461;28;20116;-52
2023/06/13 02:51:09;;;;;;;8.52;4.97;;;;;;;16.96;100.00;101313.47;5013267;28;20341;-49
2023/06/13 02:53:35;;;;;;;8.25;4.72;;;;;;;17.39;100.00;101407.91;5030830;28;20041;-49
2023/06/13 02:56:01;;;;;;;5.80;5.28;;;;;;;17.22;100.00;101400.78;5032124;28;20033;-50
2023/06/13 02:58:26;;;;;;;4.82;4.40;;;;;;;17.26;100.00;101410.34;5035843;28;20068;-52
2023/06/13 03:00:52;;;;;;;5.03;4.43;;;;;;;16.69;100.00;101307.78;5036067;28;20124;-53
2023/06/13 03:03:18;;;;;;;8.70;5.20;;;;;;;17.05;100.00;101379.50;5018463;28;20073;-51
2023/06/13 03:05:47;;;;;;;5.35;4.30;;;;;;;17.16;100.00;101397.59;5016596;28;20041;-52
2023/06/13 03:08:18;;;;;;;8.32;4.80;;;;;;;17.08;100.00;101394.44;5035644;28;20084;-52
2023/06/13 03:10:44;;;;;;;5.50;4.78;;;;;;;17.14;100.00;101412.75;5036013;28;20034;-54
2023/06/13 03:13:09;;;;;;;6.03;4.85;;;;;;;17.09;100.00;101401.47;5035675;28;20033;-55
2023/06/13 03:15:34;;;;;;;5.47;4.72;;;;;;;16.65;100.00;101338.09;5035583;28;20495;-51
2023/06/13 03:18:00;;;;;;;6.32;5.15;;;;;;;17.03;100.00;101410.63;5018239;28;20488;-52
2023/06/13 03:20:25;;;;;;;6.55;4.70;;;;;;;16.94;100.00;101405.78;5035699;28;20472;-53
2023/06/13 03:22:51;;;;;;;8.68;4.80;;;;;;;16.97;100.00;101410.94;5034165;28;20388;-52
2023/06/13 03:25:16;;;;;;;6.88;5.05;;;;;;;16.89;100.00;101410.47;5035525;28;20078;-51
2023/06/13 03:27:42;;;;;;;7.20;4.70;;;;;;;16.86;100.00;101411.47;5035381;28;20399;-53
2023/06/13 03:30:08;;;;;;;5.53;4.97;;;;;;;16.38;100.00;101334.09;5035392;28;20042;-52
2023/06/13 03:32:33;;;;;;;7.43;5.30;;;;;;;16.79;100.00;101412.72;5017653;28;20037;-52
2023/06/13 03:35:00;;;;;;;8.00;4.80;;;;;;;16.64;100.00;101388.66;5035538;28;20376;-53
2023/06/13 03:37:25;;;;;;;7.05;5.38;;;;;;;16.65;100.00;101393.91;5017464;28;20052;-53
2023/06/13 03:39:50;;;;;;;6.25;5.03;;;;;;;16.18;100.00;101315.59;5016500;28;20041;-54
2023/06/13 03:42:16;;;;;;;5.63;5.10;;;;;;;16.69;100.00;101421.22;5017843;28;20037;-52
2023/06/13 03:44:46;;;;;;;8.02;4.93;;;;;;;16.63;100.00;101406.44;5035315;28;20440;-51
2023/06/13 03:47:12;;;;;;;6.33;4.83;;;;;;;16.16;100.00;101325.44;5034780;28;20064;-52
2023/06/13 03:49:37;;;;;;;8.80;5.32;;;;;;;16.44;100.00;101381.63;5034990;28;20069;-53
2023/06/13 03:52:03;;;;;;;5.97;5.03;;;;;;;16.20;100.00;101325.22;5035393;28;20068;-54
2023/06/13 03:54:28;;;;;;;6.82;5.00;;;;;;;16.61;100.00;101396.78;5017623;28;20120;-52
2023/06/13 03:56:53;;;;;;;5.82;5.25;;;;;;;16.66;100.00;101402.75;5015982;28;20038;-51
2023/06/13 03:59:19;;;;;;;5.53;5.03;;;;;;;16.67;100.00;101410.63;5035023;28;20049;-51
2023/06/13 04:01:44;;;;;;;5.25;4.68;;;;;;;16.25;100.00;101335.63;5034608;28;20089;-53
2023/06/13 04:04:10;;;;;;;7.50;4.70;;;;;;;16.70;100.00;101406.97;5034774;28;20059;-52
2023/06/13 04:06:36;;;;;;;6.13;5.32;;;;;;;16.28;100.00;101331.03;5034675;28;20045;-55
2023/06/13 04:09:04;;;;;;;5.60;4.82;;;;;;;16.36;100.00;101349.25;5034503;28;20033;-52
2023/06/13 04:11:30;;;;;;;6.57;5.57;;;;;;;16.77;100.00;101411.94;5034126;28;20069;-55
2023/06/13 04:13:55;;;;;;;8.07;4.78;;;;;;;16.79;100.00;101411.84;5034697;28;20315;-54
2023/06/13 04:16:20;;;;;;;5.85;5.25;;;;;;;16.38;100.00;101335.88;5034108;28;20045;-52
2023/06/13 04:18:46;;;;;;;8.95;5.18;;;;;;;16.87;100.00;101425.63;5034405;28;20485;-52
2023/06/13 04:21:11;;;;;;;6.47;4.82;;;;;;;16.91;100.00;101421.88;5017071;28;20079;-52
2023/06/13 04:23:36;;;;;;;5.53;4.97;;;;;;;16.84;100.00;101412.50;5016835;28;20511;-55
2023/06/13 04:26:05;;;;;;;7.35;4.95;;;;;;;16.91;100.00;101426.34;5034316;28;20116;-52
2023/06/13 04:28:32;;;;;;;7.95;5.60;;;;;;;16.50;100.00;101353.88;5033070;28;20037;-51
2023/06/13 04:30:57;;;;;;;10.18;5.38;;;;;;;16.45;100.00;101330.22;5016466;28;20029;-54
2023/06/13 04:33:24;;;;;;;5.82;5.22;;;;;;;17.00;100.00;101416.09;5034322;28;20041;-53
2023/06/13 04:35:50;;;;;;;5.55;5.05;;;;;;;17.07;100.00;101414.00;5034395;28;20175;-51
2023/06/13 04:38:20;;;;;;;6.38;5.18;;;;;;;16.88;100.00;101376.81;5033930;28;20029;-53
2023/06/13 04:40:46;;;;;;;5.80;4.93;;;;;;;17.08;100.00;101413.91;5016768;28;20116;-52
2023/06/13 04:43:14;;;;;;;11.68;5.68;;;;;;;16.69;100.00;101346.78;5033767;28;20505;-51
2023/06/13 04:45:42;;;;;;;5.63;4.65;;;;;;;17.08;100.00;101402.41;5032761;28;20069;-53
2023/06/13 04:48:09;;;;;;;6.05;5.13;;;;;;;17.19;100.00;101419.56;5033340;28;20048;-54
2023/06/13 04:50:37;;;;;;;9.40;5.68;;;;;;;17.21;100.00;101438.13;5033945;28;20068;-53
2023/06/13 04:53:07;;;;;;;5.28;4.63;;;;;;;17.20;100.00;101423.09;5033941;28;20033;-54
2023/06/13 04:55:32;;;;;;;7.25;5.30;;;;;;;17.23;100.00;101445.06;5034050;28;20034;-52
2023/06/13 04:57:58;;;;;;;6.97;4.90;;;;;;;16.77;100.00;101342.81;5033720;28;20041;-54
2023/06/13 05:00:24;;;;;;;11.60;5.20;;;;;;;16.86;100.00;101357.44;5033793;28;20044;-52
2023/06/13 05:02:51;;;;;;;5.95;5.30;;;;;;;16.95;100.00;101364.09;5032653;28;20397;-50
2023/06/13 05:05:18;;;;;;;5.60;5.00;;;;;;;17.40;100.00;101438.91;5033739;28;20101;-53
2023/06/13 05:07:44;;;;;;;6.97;5.15;;;;;;;17.33;100.00;101427.72;5033935;28;20044;-53
2023/06/13 05:10:09;;;;;;;6.05;4.78;;;;;;;17.46;100.00;101435.91;5033424;28;20473;-52
2023/06/13 05:12:34;;;;;;;5.95;4.95;;;;;;;17.55;100.00;101448.78;5033205;28;20045;-53
2023/06/13 05:15:00;;;;;;;7.88;5.00;;;;;;;17.59;100.00;101450.38;5033392;28;20128;-53
2023/06/13 05:17:27;;;;;;;5.45;4.95;;;;;;;17.52;100.00;101419.63;5015892;28;20033;-54
2023/06/13 05:19:54;;;;;;;6.18;4.75;;;;;;;17.68;100.00;101433.91;5014530;28;20044;-49
2023/06/13 05:22:20;;;;;;;7.60;5.07;;;;;;;17.73;100.00;101431.00;5015593;28;20100;-53
2023/06/13 05:24:46;;;;;;;7.95;5.72;;;;;;;17.92;100.00;101447.75;5032830;28;20045;-51
2023/06/13 05:27:11;;;;;;;6.43;5.60;;;;;;;17.96;100.00;101425.31;5033404;28;20038;-55
2023/06/13 05:29:37;;;;;;;6.72;5.30;;;;;;;17.87;100.00;101394.72;5033054;28;20444;-53
2023/06/13 05:32:03;;;;;;;7.22;5.20;;;;;;;18.42;100.00;101466.31;5015662;28;20057;-53
2023/06/13 05:34:28;;;;;;;7.25;5.78;;;;;;;18.16;100.00;101403.78;5033176;28;20069;-53
2023/06/13 05:36:54;;;;;;;6.28;4.95;;;;;;;18.65;100.00;101468.59;5032220;28;20037;-50
2023/06/13 05:39:20;;;;;;;7.03;5.55;;;;;;;18.36;100.00;101397.34;5032979;28;20389;-53
2023/06/13 05:41:45;;;;;;;7.68;5.50;;;;;;;18.87;100.00;101473.59;5033064;28;20436;-53
2023/06/13 05:44:13;;;;;;;6.15;5.22;;;;;;;18.95;100.00;101471.34;5032719;28;20046;-49
2023/06/13 05:46:38;;;;;;;12.68;5.95;;;;;;;18.97;100.00;101464.13;5032799;28;20057;-53
2023/06/13 05:49:03;;;;;;;6.32;4.88;;;;;;;19.16;100.00;101474.59;5015078;28;20080;-52
2023/06/13 05:51:29;;;;;;;6.28;5.68;;;;;;;18.91;100.00;101421.78;5032966;28;20033;-51
2023/06/13 05:53:54;;;;;;;5.82;5.22;;;;;;;18.95;100.00;101417.97;5031589;28;20473;-52
2023/06/13 05:56:20;;;;;;;5.70;5.18;;;;;;;19.45;100.00;101476.44;5032745;28;20033;-52
2023/06/13 05:58:45;;;;;;;6.15;5.13;;;;;;;19.64;100.00;101485.09;5032574;28;20037;-53
2023/06/13 06:01:10;;;;;;;6.13;5.35;;;;;;;19.35;100.00;101416.53;5015024;28;20094;-55
2023/06/13 06:03:36;;;;;;;8.18;5.40;;;;;;;19.90;100.00;101483.53;5032710;28;20041;-52
2023/06/13 06:06:02;;;;;;;5.22;4.72;;;;;;;19.90;100.00;101465.69;5014757;28;20041;-54
2023/06/13 06:08:28;;;;;;;6.10;5.30;;;;;;;19.62;100.00;101422.88;5031763;28;20041;-50
2023/06/13 06:10:53;;;;;;;6.20;5.57;;;;;;;20.08;100.00;101487.75;5031183;28;20038;-51
2023/06/13 06:13:19;;;;;;;5.45;4.95;;;;;;;20.14;100.00;101508.72;5013843;28;20026;-47
2023/06/13 06:15:44;;;;;;;5.63;5.13;;;;;;;20.27;100.00;101500.84;5032006;28;20029;-48
2023/06/13 06:18:09;;;;;;;7.70;4.72;;;;;;;20.28;100.00;101490.09;5031228;28;20439;-51
2023/06/13 06:20:35;;;;;;;6.82;4.85;;;;;;;20.36;100.00;101492.25;5032451;28;20033;-52
2023/06/13 06:23:00;;;;;;;7.25;5.15;;;;;;;20.44;100.00;101493.50;5014448;28;20064;-50
2023/06/13 06:25:25;;;;;;;6.85;5.43;;;;;;;20.56;100.00;101489.19;5030868;28;20037;-51
2023/06/13 06:27:51;;;;;;;7.60;5.00;;;;;;;20.73;100.00;101478.25;5032059;28;20029;-52
2023/06/13 06:30:16;;;;;;;7.65;5.25;;;;;;;20.90;100.00;101487.91;5032139;28;20087;-54
2023/06/13 06:32:42;;;;;;;7.47;4.95;;;;;;;20.25;100.00;101374.41;5032201;28;20029;-51
2023/06/13 06:35:07;;;;;;;9.02;5.10;;;;;;;21.00;100.00;101475.63;5030810;28;20152;-49
2023/06/13 06:37:33;;;;;;;9.30;5.60;;;;;;;20.87;100.00;101430.06;5031494;28;20480;-50
2023/06/13 06:39:59;;;;;;;4.85;4.28;;;;;;;20.97;100.00;101422.28;5031209;28;20377;-52
2023/06/13 06:42:25;;;;;;;8.65;5.15;;;;;;;21.05;100.00;101436.88;5031889;28;20029;-52
2023/06/13 06:44:51;;;;;;;7.72;5.10;;;;;;;21.41;100.00;101489.84;5031898;28;20033;-51
2023/06/13 06:47:16;;;;;;;12.32;4.85;;;;;;;21.20;100.00;101433.22;5032323;28;20595;-50
2023/06/13 06:49:41;;;;;;;7.43;4.80;;;;;;;21.17;100.00;101409.31;5032161;28;20396;-50
2023/06/13 06:52:07;;;;;;;6.25;4.50;;;;;;;21.80;100.00;101491.63;5014299;28;20041;-53
2023/06/13 06:54:32;;;;;;;6.07;4.20;;;;;;;21.48;100.00;101423.31;5032478;28;20084;-52
2023/06/13 06:56:58;;;;;;;8.20;5.20;;;;;;;21.93;100.00;101488.97;5030919;28;20121;-53
2023/06/13 06:59:23;;;;;;;6.55;5.05;;;;;;;21.65;100.00;101429.25;5031923;28;20037;-50
2023/06/13 07:01:50;;;;;;;6.38;4.78;;;;;;;21.77;100.00;101423.00;5031581;28;20139;-50
2023/06/13 07:04:16;;;;;;;6.53;4.45;;;;;;;21.97;100.00;101431.50;5014353;28;20037;-51
2023/06/13 07:06:41;;;;;;;8.27;4.80;;;;;;;22.55;100.00;101485.41;5014258;28;20030;-48
2023/06/13 07:09:06;;;;;;;7.65;5.13;;;;;;;22.72;100.00;101485.06;4997386;28;20041;-53
2023/06/13 07:11:32;;;;;;;6.80;4.70;;;;;;;22.81;100.00;101496.97;5014081;28;20080;-50
2023/06/13 07:13:57;;;;;;;7.15;4.22;;;;;;;23.01;100.00;101498.16;5030610;28;20137;-53
2023/06/13 07:16:22;;;;;;;7.60;4.88;;;;;;;22.75;100.00;101430.31;5014079;28;20060;-51
2023/06/13 07:18:50;;;;;;;6.20;4.38;;;;;;;23.30;100.00;101495.03;5031770;28;20473;-49
2023/06/13 07:21:15;;;;;;;6.88;4.78;;;;;;;23.43;100.00;101501.25;5014151;28;20041;-49
2023/06/13 07:23:40;;;;;;;6.05;4.50;;;;;;;23.40;100.00;101493.41;5029513;28;20053;-50
2023/06/13 07:26:06;;;;;;;6.82;4.45;;;;;;;23.60;100.00;101486.53;5030615;28;20129;-50
2023/06/13 07:28:31;;;;;;;10.70;4.95;;;;;;;23.68;100.00;101483.22;5031247;28;20052;-49
2023/06/13 07:30:58;;;;;;;5.53;4.25;;;;;;;23.83;100.00;101498.19;5030283;28;20113;-50
2023/06/13 07:33:24;;;;;;;8.25;4.18;;;;;;;24.01;100.00;101505.69;5031814;28;20092;-48
2023/06/13 07:35:52;;;;;;;5.25;4.80;;;;;;;23.81;100.00;101444.56;5029822;28;20115;-49
2023/06/13 07:38:19;;;;;;;7.20;4.85;;;;;;;24.52;100.00;101502.56;5030021;28;20124;-50
2023/06/13 07:40:45;;;;;;;6.35;4.10;;;;;;;24.74;100.00;101494.50;5030236;28;20033;-52
2023/06/13 07:43:10;;;;;;;6.68;4.35;;;;;;;24.74;100.00;101443.34;5031577;28;20037;-52
2023/06/13 07:45:36;;;;;;;6.72;4.07;;;;;;;25.23;100.00;101467.09;5032574;28;20138;-50
2023/06/13 07:48:01;;;;;;;9.40;4.95;;;;;;;25.66;100.00;101450.84;5031323;28;20046;-49
2023/06/13 07:50:27;;;;;;;4.20;3.80;;;;;;;25.82;100.00;101391.06;5033435;28;20035;-51
2023/06/13 07:52:52;;;;;;;6.45;4.70;;;;;;;26.46;100.00;101465.38;5033341;28;20499;-51
2023/06/13 07:55:18;;;;;;;5.13;4.47;;;;;;;27.12;100.00;101506.22;5032947;28;20030;-52
2023/06/13 07:57:43;;;;;;;7.47;4.43;;;;;;;27.23;100.00;101515.03;5033035;28;20115;-51
2023/06/13 08:00:14;;;;;;;4.65;4.25;;;;;;;27.33;100.00;101501.53;5033495;28;20033;-48
2023/06/13 08:02:39;;;;;;;5.63;3.90;;;;;;;27.62;100.00;101458.31;5033337;28;20047;-53
2023/06/13 08:05:06;;;;;;;6.55;4.18;;;;;;;28.02;100.00;101437.28;5031566;28;20037;-51
2023/06/13 08:07:31;;;;;;;10.15;4.43;;;;;;;28.44;99.69;101460.22;5032314;28;20046;-50
2023/06/13 08:09:56;;;;;;;8.55;4.35;;;;;;;28.60;98.19;101442.47;5032719;28;20034;-49
2023/06/13 08:12:22;;;;;;;5.28;4.78;;;;;;;28.94;98.17;101497.78;5032632;28;20400;-49
2023/06/13 08:14:47;;;;;;;6.00;4.47;;;;;;;28.78;94.90;101443.41;5033458;28;20029;-51
2023/06/13 08:17:12;;;;;;;4.80;4.05;;;;;;;29.00;95.54;101453.78;5033164;28;20452;-51
2023/06/13 08:19:38;;;;;;;8.23;4.28;;;;;;;28.77;89.06;101439.84;5033155;28;20029;-51
2023/06/13 08:22:04;;;;;;;4.80;4.25;;;;;;;29.63;90.12;101491.72;5031630;28;20048;-51
2023/06/13 08:24:29;;;;;;;5.43;4.50;;;;;;;29.73;88.19;101481.59;5019228;28;20053;-49
2023/06/13 08:26:55;;;;;;;6.38;4.18;;;;;;;29.55;87.44;101438.22;5012941;28;20041;-51
2023/06/13 08:29:21;;;;;;;5.85;4.38;;;;;;;29.88;89.35;101501.78;4989607;28;20398;-50
2023/06/13 08:31:46;;;;;;;6.35;4.47;;;;;;;29.25;91.85;101485.59;5012666;28;20045;-52
2023/06/13 08:34:11;;;;;;;5.63;4.20;;;;;;;29.54;95.81;101496.19;4995518;28;20508;-52
2023/06/13 08:36:38;;;;;;;6.43;4.38;;;;;;;29.43;91.08;101472.88;5013019;28;20038;-50
2023/06/13 08:39:04;;;;;;;6.20;4.78;;;;;;;29.75;90.77;101483.16;4994818;28;20109;-50
2023/06/13 08:41:30;;;;;;;7.22;4.80;;;;;;;29.66;90.46;101488.66;5012400;28;20042;-51
2023/06/13 08:43:57;;;;;;;5.82;4.07;;;;;;;29.30;91.38;101447.19;5010446;28;20038;-50
2023/06/13 08:46:24;;;;;;;6.72;4.63;;;;;;;30.14;94.04;101480.91;4995629;28;20037;-53
2023/06/13 08:48:49;;;;;;;7.03;5.13;;;;;;;29.93;89.99;101502.13;5012668;28;20045;-52
2023/06/13 08:51:16;;;;;;;7.40;4.72;;;;;;;29.30;85.19;101439.91;5012701;28;20049;-52
2023/06/13 08:53:49;;;;;;;10.38;4.30;;;;;;;29.47;89.53;101485.13;4994493;28;20030;-51
2023/06/13 08:56:15;;;;;;;7.25;4.70;;;;;;;29.68;87.19;101481.22;5010891;28;20037;-51
2023/06/13 08:58:42;;;;;;;4.60;4.18;;;;;;;29.67;88.85;101420.69;4994985;28;20030;-52
2023/06/13 09:01:07;;;;;;;6.15;4.32;;;;;;;29.65;84.50;101462.56;4993857;28;20037;-51
2023/06/13 09:03:34;;;;;;;5.40;4.43;;;;;;;29.24;91.60;101423.41;5012505;28;20041;-49
2023/06/13 09:06:00;;;;;;;8.45;5.05;;;;;;;29.67;77.66;101420.69;5012174;28;20048;-50
2023/06/13 09:08:27;;;;;;;7.00;4.85;;;;;;;29.56;81.50;101399.25;5010680;28;20037;-49
2023/06/13 09:10:53;;;;;;;9.35;4.93;;;;;;;30.13;77.86;101476.47;5012521;28;20095;-51
2023/06/13 09:13:19;;;;;;;8.02;4.97;;;;;;;30.47;76.85;101427.63;4994751;28;20548;-50
2023/06/13 09:15:45;;;;;;;4.47;4.07;;;;;;;30.64;74.88;101462.00;5010654;28;20037;-48
2023/06/13 09:18:11;;;;;;;8.25;5.05;;;;;;;30.45;69.73;101459.53;5011606;28;20088;-51
2023/06/13 09:20:36;;;;;;;9.43;5.13;;;;;;;30.36;78.32;101472.19;4994345;28;20502;-50
2023/06/13 09:23:02;;;;;;;6.93;4.63;;;;;;;30.07;71.83;101464.41;5011928;28;20116;-52
2023/06/13 09:25:30;;;;;;;6.70;4.63;;;;;;;30.15;72.89;101412.03;5029962;28;20082;-50
2023/06/13 09:27:55;;;;;;;5.90;4.38;;;;;;;29.81;64.79;101394.84;5031482;28;20033;-52
2023/06/13 09:30:20;;;;;;;7.78;4.38;;;;;;;30.17;69.46;101471.59;5031856;28;20384;-49
2023/06/13 09:32:49;;;;;;;5.43;4.57;;;;;;;29.96;61.26;101477.41;5029815;28;20071;-48
2023/06/13 09:35:16;;;;;;;8.27;4.60;;;;;;;29.99;58.02;101431.78;5029727;28;20037;-50
2023/06/13 09:37:42;;;;;;;7.80;4.93;;;;;;;29.61;64.38;101406.91;5031295;28;20461;-53
2023/06/13 09:40:09;;;;;;;12.45;4.60;;;;;;;30.71;68.72;101456.78;5013740;28;20045;-47
2023/06/13 09:42:35;;;;;;;6.95;4.20;;;;;;;30.73;63.07;101416.69;5013965;28;20037;-49
2023/06/13 09:45:06;;;;;;;7.03;4.43;;;;;;;30.85;57.27;101420.78;5029538;28;20037;-52
2023/06/13 09:47:33;;;;;;;5.55;4.95;;;;;;;31.20;58.89;101469.50;5027134;28;20096;-51
2023/06/13 09:49:58;;;;;;;7.18;4.32;;;;;;;31.51;53.88;101447.94;5031085;28;20037;-52
2023/06/13 09:52:25;;;;;;;8.23;4.50;;;;;;;31.75;55.88;101453.38;5031499;28;20033;-53
2023/06/13 09:54:52;;;;;;;5.30;4.32;;;;;;;31.73;60.45;101412.69;5031121;28;20104;-52
2023/06/13 09:57:19;;;;;;;6.35;4.35;;;;;;;32.42;62.10;101440.28;5013740;28;20076;-50
2023/06/13 09:59:46;;;;;;;6.30;4.70;;;;;;;31.85;55.25;101454.00;5013594;28;20045;-53
2023/06/13 10:02:11;;;;;;;8.25;4.60;;;;;;;31.69;54.89;101448.59;5028592;28;20045;-52
2023/06/13 10:04:37;;;;;;;6.15;3.97;;;;;;;30.56;56.39;101403.03;5030631;28;20034;-50
2023/06/13 10:07:02;;;;;;;6.38;4.55;;;;;;;31.12;51.70;101437.69;5012511;28;20052;-51
2023/06/13 10:09:28;;;;;;;7.30;4.50;;;;;;;31.07;53.67;101431.03;5012942;28;20049;-50
2023/06/13 10:11:54;;;;;;;8.98;4.75;;;;;;;30.75;54.56;101399.19;5013591;28;20505;-49
2023/06/13 10:14:22;;;;;;;5.20;4.60;;;;;;;30.73;52.96;101441.13;5031236;28;20090;-49
2023/06/13 10:16:54;;;;;;;9.38;4.25;;;;;;;31.04;57.07;101394.16;5030746;28;20060;-48
2023/06/13 10:19:20;;;;;;;7.03;4.57;;;;;;;31.55;59.42;101455.56;5023290;28;20041;-48
2023/06/13 10:21:46;;;;;;;9.20;4.55;;;;;;;31.61;59.88;101454.06;5030871;28;20033;-48
2023/06/13 10:24:12;;;;;;;5.15;4.65;;;;;;;31.99;52.53;101445.13;5019512;28;20057;-46
2023/06/13 10:26:43;;;;;;;4.53;4.13;;;;;;;32.07;51.79;101450.63;4993377;28;20038;-48
2023/06/13 10:29:11;;;;;;;;;;;;;;;31.76;51.76;101431.41;5011501;28;20022;-51
2023/06/13 10:31:44;;;;;;;12.07;4.57;;;;;;;31.94;55.83;101438.50;5010765;28;20392;-49
2023/06/13 10:34:39;;;;;;;8.93;5.43;;;;;;;31.87;65.34;101427.50;4992461;28;20497;-49
2023/06/13 10:37:33;;;;;;;6.28;4.35;;;;;;;32.14;56.57;101423.50;4990480;28;20072;-50
2023/06/13 10:40:28;;;;;;;4.97;4.57;;;;;;;32.22;50.31;101421.59;4989880;28;20389;-52
2023/06/13 10:43:00;;;;;;;5.10;4.68;;;;;;;32.55;50.20;101411.44;4989378;28;20521;-51
2023/06/13 10:45:27;;;;;;;4.78;4.38;;;;;;;32.83;51.91;101370.91;4989981;28;20035;-57
2023/06/13 10:47:52;;;;;;;7.07;4.78;;;;;;;32.50;47.88;101404.78;4991315;28;20500;-52
2023/06/13 10:50:18;;;;;;;7.32;4.40;;;;;;;32.63;46.80;101386.03;4973572;28;20046;-53
2023/06/13 10:52:48;;;;;;;7.35;4.50;;;;;;;32.37;51.65;101358.22;4995166;28;20060;-50
2023/06/13 10:55:22;;;;;;;7.65;4.30;;;;;;;32.06;52.41;101366.34;5010897;28;20038;-52
2023/06/13 10:57:49;;;;;;;9.88;4.72;;;;;;;32.35;56.87;101404.69;5011042;28;20038;-53
2023/06/13 11:00:23;;;;;;;6.53;4.82;;;;;;;32.45;53.10;101412.66;5010547;28;20053;-53
2023/06/13 11:02:48;;;;;;;7.00;4.40;;;;;;;32.39;53.26;101406.06;5010594;28;20045;-53
2023/06/13 11:05:14;;;;;;;4.95;4.55;;;;;;;32.50;57.11;101348.41;5009178;28;20370;-56
2023/06/13 11:07:46;;;;;;;10.45;4.85;;;;;;;32.21;54.37;101400.84;5010810;28;20500;-51
2023/06/13 11:10:13;;;;;;;6.30;4.45;;;;;;;33.04;58.41;101402.97;5004662;28;20050;-52
2023/06/13 11:12:41;;;;;;;4.68;4.28;;;;;;;33.12;46.27;101405.66;4992825;28;20041;-49
2023/06/13 11:15:22;;;;;;;6.75;4.72;;;;;;;32.71;47.39;101405.06;4992793;28;20504;-50
2023/06/13 11:18:03;;;;;;;8.98;4.60;;;;;;;32.27;50.43;101426.53;4994133;28;20037;-50